sensor_id;sensor_type;location;lat;lon;timestamp;pressure;altitude;pressure_sealevel;temperature;humidity
6198;BME280;3132;42.622;23.328;2024-03-02T00:01:48;92195.31;;;8.39;99.63
6198;BME280;3132;42.622;23.328;2024-03-02T00:04:14;92202.59;;;8.42;99.45
6198;BME280;3132;42.622;23.328;2024-03-02T00:06:39;92166.84;;;8.24;99.18
6198;BME280;3132;42.622;23.328;2024-03-02T00:09:04;92188.44;;;8.24;99.87
6198;BME280;3132;42.622;23.328;2024-03-02T00:11:30;92181.94;;;8.22;99.90
6198;BME280;3132;42.622;23.328;2024-03-02T00:13:55;92177.09;;;8.10;100.00
6198;BME280;3132;42.622;23.328;2024-03-02T00:16:21;92200.38;;;8.25;100.00
6198;BME280;3132;42.622;23.328;2024-03-02T00:18:46;92188.44;;;8.19;100.00
6198;BME280;3132;42.622;23.328;2024-03-02T00:21:12;92200.22;;;8.11;100.00
6198;BME280;3132;42.622;23.328;2024-03-02T00:23:39;92187.84;;;7.98;100.00
6198;BME280;3132;42.622;23.328;2024-03-02T00:26:05;92192.00;;;7.99;100.00
6198;BME280;3132;42.622;23.328;2024-03-02T00:28:35;92194.13;;;7.92;100.00
6198;BME280;3132;42.622;23.328;2024-03-02T00:31:08;92189.94;;;7.96;100.00
6198;BME280;3132;42.622;23.328;2024-03-02T00:33:39;92185.22;;;7.98;100.00
6198;BME280;3132;42.622;23.328;2024-03-02T00:36:06;92181.09;;;7.97;100.00
6198;BME280;3132;42.622;23.328;2024-03-02T00:38:33;92162.72;;;7.89;100.00
6198;BME280;3132;42.622;23.328;2024-03-02T00:41:00;92161.41;;;7.91;100.00
6198;BME280;3132;42.622;23.328;2024-03-02T00:46:06;92167.66;;;7.90;100.00
6198;BME280;3132;42.622;23.328;2024-03-02T00:48:32;92182.06;;;8.06;100.00
6198;BME280;3132;42.622;23.328;2024-03-02T00:51:01;92158.91;;;8.10;100.00
6198;BME280;3132;42.622;23.328;2024-03-02T00:53:26;92162.31;;;8.05;100.00
6198;BME280;3132;42.622;23.328;2024-03-02T00:55:52;92175.91;;;7.97;100.00
6198;BME280;3132;42.622;23.328;2024-03-02T00:58:17;92186.13;;;8.17;100.00
6198;BME280;3132;42.622;23.328;2024-03-02T01:00:43;92160.44;;;8.11;100.00
6198;BME280;3132;42.622;23.328;2024-03-02T01:03:08;92178.75;;;8.30;100.00
6198;BME280;3132;42.622;23.328;2024-03-02T01:05:35;92178.97;;;8.33;100.00
6198;BME280;3132;42.622;23.328;2024-03-02T01:08:01;92185.41;;;8.41;100.00
6198;BME280;3132;42.622;23.328;2024-03-02T01:10:26;92179.72;;;8.39;100.00
6198;BME280;3132;42.622;23.328;2024-03-02T01:12:52;92168.81;;;8.37;99.75
6198;BME280;3132;42.622;23.328;2024-03-02T01:15:17;92107.09;;;7.90;99.75
6198;BME280;3132;42.622;23.328;2024-03-02T01:17:42;92154.81;;;8.33;100.00
6198;BME280;3132;42.622;23.328;2024-03-02T01:20:08;92149.66;;;8.28;100.00
6198;BME280;3132;42.622;23.328;2024-03-02T01:22:34;92166.66;;;8.15;100.00
6198;BME280;3132;42.622;23.328;2024-03-02T01:25:01;92132.16;;;7.76;100.00
6198;BME280;3132;42.622;23.328;2024-03-02T01:27:26;92159.16;;;8.08;100.00
6198;BME280;3132;42.622;23.328;2024-03-02T01:29:52;92160.16;;;7.84;100.00
6198;BME280;3132;42.622;23.328;2024-03-02T01:32:17;92129.66;;;7.94;100.00
6198;BME280;3132;42.622;23.328;2024-03-02T01:34:43;92160.31;;;7.97;100.00
6198;BME280;3132;42.622;23.328;2024-03-02T01:37:08;92151.06;;;7.81;100.00
6198;BME280;3132;42.622;23.328;2024-03-02T01:39:35;92155.97;;;7.88;100.00
6198;BME280;3132;42.622;23.328;2024-03-02T01:42:00;92161.13;;;8.22;100.00
6198;BME280;3132;42.622;23.328;2024-03-02T01:44:26;92159.00;;;8.29;100.00
6198;BME280;3132;42.622;23.328;2024-03-02T01:46:51;92157.41;;;8.33;100.00
6198;BME280;3132;42.622;23.328;2024-03-02T01:49:16;92163.81;;;8.11;100.00
6198;BME280;3132;42.622;23.328;2024-03-02T01:51:42;92142.47;;;8.14;100.00
6198;BME280;3132;42.622;23.328;2024-03-02T01:54:07;92156.41;;;8.29;100.00
6198;BME280;3132;42.622;23.328;2024-03-02T01:56:33;92141.38;;;8.20;100.00
6198;BME280;3132;42.622;23.328;2024-03-02T01:58:58;92162.66;;;8.28;100.00
6198;BME280;3132;42.622;23.328;2024-03-02T02:01:24;92160.03;;;8.33;100.00
6198;BME280;3132;42.622;23.328;2024-03-02T02:03:49;92153.25;;;8.32;100.00
6198;BME280;3132;42.622;23.328;2024-03-02T02:06:14;92146.00;;;8.29;100.00
6198;BME280;3132;42.622;23.328;2024-03-02T02:08:40;92163.59;;;8.37;100.00
6198;BME280;3132;42.622;23.328;2024-03-02T02:11:06;92154.00;;;8.37;100.00
6198;BME280;3132;42.622;23.328;2024-03-02T02:13:31;92152.16;;;8.38;100.00
6198;BME280;3132;42.622;23.328;2024-03-02T02:16:04;92162.47;;;8.48;100.00
6198;BME280;3132;42.622;23.328;2024-03-02T02:18:30;92159.06;;;8.47;100.00
6198;BME280;3132;42.622;23.328;2024-03-02T02:20:55;92143.59;;;8.37;100.00
6198;BME280;3132;42.622;23.328;2024-03-02T02:23:20;92144.81;;;8.45;100.00
6198;BME280;3132;42.622;23.328;2024-03-02T02:25:46;92149.97;;;8.50;100.00
6198;BME280;3132;42.622;23.328;2024-03-02T02:28:11;92143.50;;;8.42;100.00
6198;BME280;3132;42.622;23.328;2024-03-02T02:30:36;92146.91;;;8.43;100.00
6198;BME280;3132;42.622;23.328;2024-03-02T02:33:02;92154.69;;;8.43;100.00
6198;BME280;3132;42.622;23.328;2024-03-02T02:35:28;92157.63;;;8.36;100.00
6198;BME280;3132;42.622;23.328;2024-03-02T02:37:55;92155.72;;;8.47;100.00
6198;BME280;3132;42.622;23.328;2024-03-02T02:40:22;92151.28;;;8.47;100.00
6198;BME280;3132;42.622;23.328;2024-03-02T02:42:47;92154.53;;;8.58;100.00
6198;BME280;3132;42.622;23.328;2024-03-02T02:45:13;92159.84;;;8.48;100.00
6198;BME280;3132;42.622;23.328;2024-03-02T02:47:42;92146.91;;;8.43;100.00
6198;BME280;3132;42.622;23.328;2024-03-02T02:50:09;92156.19;;;8.49;100.00
6198;BME280;3132;42.622;23.328;2024-03-02T02:52:35;92163.00;;;8.45;100.00
6198;BME280;3132;42.622;23.328;2024-03-02T02:55:03;92152.81;;;8.25;100.00
6198;BME280;3132;42.622;23.328;2024-03-02T02:57:29;92154.44;;;8.44;100.00
6198;BME280;3132;42.622;23.328;2024-03-02T02:59:56;92143.06;;;8.06;100.00
6198;BME280;3132;42.622;23.328;2024-03-02T03:02:22;92148.13;;;8.22;100.00
6198;BME280;3132;42.622;23.328;2024-03-02T03:04:47;92159.31;;;8.51;100.00
6198;BME280;3132;42.622;23.328;2024-03-02T03:07:13;92163.16;;;8.30;100.00
6198;BME280;3132;42.622;23.328;2024-03-02T03:09:38;92152.31;;;8.23;100.00
6198;BME280;3132;42.622;23.328;2024-03-02T03:12:04;92153.56;;;8.25;100.00
6198;BME280;3132;42.622;23.328;2024-03-02T03:14:29;92157.06;;;8.39;100.00
6198;BME280;3132;42.622;23.328;2024-03-02T03:16:55;92150.28;;;8.14;100.00
6198;BME280;3132;42.622;23.328;2024-03-02T03:19:20;92140.47;;;8.06;100.00
6198;BME280;3132;42.622;23.328;2024-03-02T03:21:45;92149.09;;;8.02;100.00
6198;BME280;3132;42.622;23.328;2024-03-02T03:24:10;92160.66;;;8.14;100.00
6198;BME280;3132;42.622;23.328;2024-03-02T03:26:36;92135.06;;;7.69;100.00
6198;BME280;3132;42.622;23.328;2024-03-02T03:29:02;92139.97;;;7.42;100.00
6198;BME280;3132;42.622;23.328;2024-03-02T03:31:28;92138.59;;;7.50;100.00
6198;BME280;3132;42.622;23.328;2024-03-02T03:33:54;92161.53;;;8.05;100.00
6198;BME280;3132;42.622;23.328;2024-03-02T03:36:19;92166.47;;;8.06;100.00
6198;BME280;3132;42.622;23.328;2024-03-02T03:38:44;92165.97;;;8.04;100.00
6198;BME280;3132;42.622;23.328;2024-03-02T03:41:09;92152.53;;;7.92;100.00
6198;BME280;3132;42.622;23.328;2024-03-02T03:43:35;92127.75;;;7.76;100.00
6198;BME280;3132;42.622;23.328;2024-03-02T03:46:01;92164.91;;;8.05;100.00
6198;BME280;3132;42.622;23.328;2024-03-02T03:48:27;92165.00;;;7.62;100.00
6198;BME280;3132;42.622;23.328;2024-03-02T03:50:56;92160.66;;;7.52;100.00
6198;BME280;3132;42.622;23.328;2024-03-02T03:53:22;92136.75;;;7.55;100.00
6198;BME280;3132;42.622;23.328;2024-03-02T03:55:48;92159.94;;;7.80;100.00
6198;BME280;3132;42.622;23.328;2024-03-02T03:58:14;92141.75;;;7.80;100.00
6198;BME280;3132;42.622;23.328;2024-03-02T04:00:41;92145.84;;;7.86;100.00
6198;BME280;3132;42.622;23.328;2024-03-02T04:03:07;92152.50;;;7.97;100.00
6198;BME280;3132;42.622;23.328;2024-03-02T04:05:33;92160.22;;;8.07;100.00
6198;BME280;3132;42.622;23.328;2024-03-02T04:07:58;92107.97;;;7.80;100.00
6198;BME280;3132;42.622;23.328;2024-03-02T04:10:23;92167.50;;;8.05;100.00
6198;BME280;3132;42.622;23.328;2024-03-02T04:12:49;92175.81;;;8.07;100.00
6198;BME280;3132;42.622;23.328;2024-03-02T04:15:15;92125.72;;;7.97;100.00
6198;BME280;3132;42.622;23.328;2024-03-02T04:17:41;92159.56;;;8.20;100.00
6198;BME280;3132;42.622;23.328;2024-03-02T04:20:07;92152.81;;;8.25;100.00
6198;BME280;3132;42.622;23.328;2024-03-02T04:22:33;92156.25;;;8.15;100.00
6198;BME280;3132;42.622;23.328;2024-03-02T04:25:00;92149.84;;;8.07;100.00
6198;BME280;3132;42.622;23.328;2024-03-02T04:27:25;92160.63;;;8.25;100.00
6198;BME280;3132;42.622;23.328;2024-03-02T04:29:51;92160.34;;;8.21;100.00
6198;BME280;3132;42.622;23.328;2024-03-02T04:32:16;92165.75;;;8.30;100.00
6198;BME280;3132;42.622;23.328;2024-03-02T04:34:42;92165.69;;;8.35;100.00
6198;BME280;3132;42.622;23.328;2024-03-02T04:37:08;92167.81;;;8.33;100.00
6198;BME280;3132;42.622;23.328;2024-03-02T04:39:34;92151.75;;;8.26;100.00
6198;BME280;3132;42.622;23.328;2024-03-02T04:42:00;92151.50;;;8.22;100.00
6198;BME280;3132;42.622;23.328;2024-03-02T04:44:25;92173.34;;;8.26;100.00
6198;BME280;3132;42.622;23.328;2024-03-02T04:46:51;92171.78;;;8.25;100.00
6198;BME280;3132;42.622;23.328;2024-03-02T04:49:16;92166.94;;;8.13;100.00
6198;BME280;3132;42.622;23.328;2024-03-02T04:51:41;92169.44;;;8.24;100.00
6198;BME280;3132;42.622;23.328;2024-03-02T04:54:07;92169.59;;;8.03;100.00
6198;BME280;3132;42.622;23.328;2024-03-02T04:56:32;92172.50;;;8.31;100.00
6198;BME280;3132;42.622;23.328;2024-03-02T04:58:57;92169.63;;;8.32;100.00
6198;BME280;3132;42.622;23.328;2024-03-02T05:01:23;92170.19;;;8.29;100.00
6198;BME280;3132;42.622;23.328;2024-03-02T05:03:48;92160.63;;;8.25;100.00
6198;BME280;3132;42.622;23.328;2024-03-02T05:06:13;92172.28;;;8.22;100.00
6198;BME280;3132;42.622;23.328;2024-03-02T05:08:39;92160.63;;;8.25;100.00
6198;BME280;3132;42.622;23.328;2024-03-02T05:11:04;92172.41;;;8.41;100.00
6198;BME280;3132;42.622;23.328;2024-03-02T05:13:48;92174.34;;;8.30;100.00
6198;BME280;3132;42.622;23.328;2024-03-02T05:16:13;92174.81;;;8.37;100.00
6198;BME280;3132;42.622;23.328;2024-03-02T05:18:39;92177.28;;;8.18;100.00
6198;BME280;3132;42.622;23.328;2024-03-02T05:21:05;92180.91;;;8.17;100.00
6198;BME280;3132;42.622;23.328;2024-03-02T05:23:30;92194.28;;;8.40;100.00
6198;BME280;3132;42.622;23.328;2024-03-02T05:25:56;92164.88;;;8.10;100.00
6198;BME280;3132;42.622;23.328;2024-03-02T05:28:21;92192.03;;;8.28;100.00
6198;BME280;3132;42.622;23.328;2024-03-02T05:30:46;92169.06;;;8.06;100.00
6198;BME280;3132;42.622;23.328;2024-03-02T05:33:12;92200.91;;;8.22;100.00
6198;BME280;3132;42.622;23.328;2024-03-02T05:35:38;92202.25;;;8.14;100.00
6198;BME280;3132;42.622;23.328;2024-03-02T05:38:03;92202.69;;;7.98;100.00
6198;BME280;3132;42.622;23.328;2024-03-02T05:40:28;92205.38;;;8.16;100.00
6198;BME280;3132;42.622;23.328;2024-03-02T05:42:54;92207.69;;;8.18;100.00
6198;BME280;3132;42.622;23.328;2024-03-02T05:45:19;92215.75;;;8.22;100.00
6198;BME280;3132;42.622;23.328;2024-03-02T05:47:44;92221.38;;;8.34;100.00
6198;BME280;3132;42.622;23.328;2024-03-02T05:50:10;92221.66;;;8.32;100.00
6198;BME280;3132;42.622;23.328;2024-03-02T05:52:35;92217.50;;;8.31;100.00
6198;BME280;3132;42.622;23.328;2024-03-02T05:55:00;92214.91;;;8.55;100.00
6198;BME280;3132;42.622;23.328;2024-03-02T05:57:26;92222.28;;;8.48;100.00
6198;BME280;3132;42.622;23.328;2024-03-02T06:00:10;92220.44;;;8.19;100.00
6198;BME280;3132;42.622;23.328;2024-03-02T06:02:39;92225.53;;;8.35;100.00
6198;BME280;3132;42.622;23.328;2024-03-02T06:05:06;92220.81;;;8.37;100.00
6198;BME280;3132;42.622;23.328;2024-03-02T06:07:32;92210.16;;;8.38;100.00
6198;BME280;3132;42.622;23.328;2024-03-02T06:09:57;92226.38;;;8.54;100.00
6198;BME280;3132;42.622;23.328;2024-03-02T06:12:23;92184.28;;;8.23;100.00
6198;BME280;3132;42.622;23.328;2024-03-02T06:14:49;92211.41;;;8.41;100.00
6198;BME280;3132;42.622;23.328;2024-03-02T06:17:14;92215.53;;;8.47;100.00
6198;BME280;3132;42.622;23.328;2024-03-02T06:19:39;92212.81;;;8.57;100.00
6198;BME280;3132;42.622;23.328;2024-03-02T06:22:05;92231.81;;;8.57;100.00
6198;BME280;3132;42.622;23.328;2024-03-02T06:24:31;92221.41;;;8.57;100.00
6198;BME280;3132;42.622;23.328;2024-03-02T06:26:56;92215.28;;;8.48;100.00
6198;BME280;3132;42.622;23.328;2024-03-02T06:29:21;92218.03;;;8.57;100.00
6198;BME280;3132;42.622;23.328;2024-03-02T06:31:47;92222.97;;;8.58;100.00
6198;BME280;3132;42.622;23.328;2024-03-02T06:34:12;92222.09;;;8.68;100.00
6198;BME280;3132;42.622;23.328;2024-03-02T06:36:38;92222.03;;;8.73;100.00
6198;BME280;3132;42.622;23.328;2024-03-02T06:39:05;92219.72;;;8.71;100.00
6198;BME280;3132;42.622;23.328;2024-03-02T06:41:30;92227.06;;;8.88;100.00
6198;BME280;3132;42.622;23.328;2024-03-02T06:43:56;92226.41;;;8.77;100.00
6198;BME280;3132;42.622;23.328;2024-03-02T06:46:25;92232.94;;;8.75;100.00
6198;BME280;3132;42.622;23.328;2024-03-02T06:48:53;92211.13;;;8.42;100.00
6198;BME280;3132;42.622;23.328;2024-03-02T06:51:18;92214.78;;;8.70;100.00
6198;BME280;3132;42.622;23.328;2024-03-02T06:53:44;92237.88;;;8.76;100.00
6198;BME280;3132;42.622;23.328;2024-03-02T06:56:09;92242.38;;;8.94;100.00
6198;BME280;3132;42.622;23.328;2024-03-02T06:58:34;92237.16;;;8.71;100.00
6198;BME280;3132;42.622;23.328;2024-03-02T07:01:00;92215.91;;;8.64;100.00
6198;BME280;3132;42.622;23.328;2024-03-02T07:03:28;92248.91;;;8.92;100.00
6198;BME280;3132;42.622;23.328;2024-03-02T07:05:53;92232.19;;;8.98;100.00
6198;BME280;3132;42.622;23.328;2024-03-02T07:08:19;92216.44;;;8.84;100.00
6198;BME280;3132;42.622;23.328;2024-03-02T07:10:44;92242.47;;;8.84;100.00
6198;BME280;3132;42.622;23.328;2024-03-02T07:13:09;92246.47;;;9.00;100.00
6198;BME280;3132;42.622;23.328;2024-03-02T07:15:35;92240.94;;;9.07;100.00
6198;BME280;3132;42.622;23.328;2024-03-02T07:18:26;92236.81;;;8.77;100.00
6198;BME280;3132;42.622;23.328;2024-03-02T07:20:52;92240.50;;;8.76;100.00
6198;BME280;3132;42.622;23.328;2024-03-02T07:23:17;92255.38;;;8.94;100.00
6198;BME280;3132;42.622;23.328;2024-03-02T07:25:42;92255.53;;;9.03;100.00
6198;BME280;3132;42.622;23.328;2024-03-02T07:28:08;92248.19;;;8.86;100.00
6198;BME280;3132;42.622;23.328;2024-03-02T07:30:33;92238.91;;;8.75;100.00
6198;BME280;3132;42.622;23.328;2024-03-02T07:32:59;92248.72;;;8.83;100.00
6198;BME280;3132;42.622;23.328;2024-03-02T07:35:25;92252.78;;;8.94;100.00
6198;BME280;3132;42.622;23.328;2024-03-02T07:37:53;92249.94;;;8.91;100.00
6198;BME280;3132;42.622;23.328;2024-03-02T07:40:19;92248.19;;;9.10;100.00
6198;BME280;3132;42.622;23.328;2024-03-02T07:42:45;92263.25;;;9.13;100.00
6198;BME280;3132;42.622;23.328;2024-03-02T07:45:10;92260.09;;;9.16;100.00
6198;BME280;3132;42.622;23.328;2024-03-02T07:47:36;92252.09;;;9.31;100.00
6198;BME280;3132;42.622;23.328;2024-03-02T07:50:02;92263.94;;;9.42;100.00
6198;BME280;3132;42.622;23.328;2024-03-02T07:52:28;92274.03;;;9.48;100.00
6198;BME280;3132;42.622;23.328;2024-03-02T07:54:53;92273.53;;;9.65;100.00
6198;BME280;3132;42.622;23.328;2024-03-02T07:57:19;92264.25;;;9.59;100.00
6198;BME280;3132;42.622;23.328;2024-03-02T07:59:44;92274.31;;;9.47;100.00
6198;BME280;3132;42.622;23.328;2024-03-02T08:02:10;92273.75;;;9.50;100.00
6198;BME280;3132;42.622;23.328;2024-03-02T08:04:36;92280.06;;;9.44;100.00
6198;BME280;3132;42.622;23.328;2024-03-02T08:07:02;92276.50;;;9.16;100.00
6198;BME280;3132;42.622;23.328;2024-03-02T08:09:28;92275.16;;;9.19;100.00
6198;BME280;3132;42.622;23.328;2024-03-02T08:11:53;92280.34;;;9.42;100.00
6198;BME280;3132;42.622;23.328;2024-03-02T08:14:18;92286.00;;;9.49;100.00
6198;BME280;3132;42.622;23.328;2024-03-02T08:16:44;92243.41;;;9.17;100.00
6198;BME280;3132;42.622;23.328;2024-03-02T08:19:10;92276.84;;;9.52;100.00
6198;BME280;3132;42.622;23.328;2024-03-02T08:21:36;92281.16;;;9.61;100.00
6198;BME280;3132;42.622;23.328;2024-03-02T08:24:02;92283.59;;;9.53;100.00
6198;BME280;3132;42.622;23.328;2024-03-02T08:26:27;92282.47;;;9.59;100.00
6198;BME280;3132;42.622;23.328;2024-03-02T08:28:57;92288.75;;;9.58;100.00
6198;BME280;3132;42.622;23.328;2024-03-02T08:31:23;92277.09;;;9.74;100.00
6198;BME280;3132;42.622;23.328;2024-03-02T08:33:48;92248.41;;;9.55;100.00
6198;BME280;3132;42.622;23.328;2024-03-02T08:36:13;92282.72;;;9.81;100.00
6198;BME280;3132;42.622;23.328;2024-03-02T08:38:40;92271.16;;;9.68;100.00
6198;BME280;3132;42.622;23.328;2024-03-02T08:41:06;92278.66;;;10.12;100.00
6198;BME280;3132;42.622;23.328;2024-03-02T08:43:32;92279.44;;;10.13;100.00
6198;BME280;3132;42.622;23.328;2024-03-02T08:45:58;92289.00;;;10.68;100.00
6198;BME280;3132;42.622;23.328;2024-03-02T08:48:23;92293.41;;;10.86;99.13
6198;BME280;3132;42.622;23.328;2024-03-02T08:50:49;92294.00;;;10.96;98.17
6198;BME280;3132;42.622;23.328;2024-03-02T08:53:14;92282.41;;;11.16;96.44
6198;BME280;3132;42.622;23.328;2024-03-02T08:55:45;92269.06;;;11.31;98.57
6198;BME280;3132;42.622;23.328;2024-03-02T08:58:10;92290.59;;;11.69;95.35
6198;BME280;3132;42.622;23.328;2024-03-02T09:00:36;92289.31;;;11.66;95.22
6198;BME280;3132;42.622;23.328;2024-03-02T09:03:01;92277.50;;;11.69;92.39
6198;BME280;3132;42.622;23.328;2024-03-02T09:05:26;92274.09;;;11.82;92.81
6198;BME280;3132;42.622;23.328;2024-03-02T09:07:52;92275.34;;;11.71;89.74
6198;BME280;3132;42.622;23.328;2024-03-02T09:10:17;92291.03;;;11.84;93.25
6198;BME280;3132;42.622;23.328;2024-03-02T09:12:42;92296.25;;;11.98;90.96
6198;BME280;3132;42.622;23.328;2024-03-02T09:15:08;92287.81;;;12.01;89.35
6198;BME280;3132;42.622;23.328;2024-03-02T09:17:33;92287.34;;;11.85;89.42
6198;BME280;3132;42.622;23.328;2024-03-02T09:19:59;92298.06;;;11.97;89.32
6198;BME280;3132;42.622;23.328;2024-03-02T09:22:24;92298.91;;;11.84;89.47
6198;BME280;3132;42.622;23.328;2024-03-02T09:24:49;92298.09;;;11.84;90.84
6198;BME280;3132;42.622;23.328;2024-03-02T09:27:15;92304.78;;;11.63;88.96
6198;BME280;3132;42.622;23.328;2024-03-02T09:29:40;92304.28;;;11.47;89.54
6198;BME280;3132;42.622;23.328;2024-03-02T09:32:06;92292.28;;;11.05;91.68
6198;BME280;3132;42.622;23.328;2024-03-02T09:34:32;92311.06;;;11.07;93.17
6198;BME280;3132;42.622;23.328;2024-03-02T09:36:57;92303.97;;;10.94;92.14
6198;BME280;3132;42.622;23.328;2024-03-02T09:39:23;92310.25;;;10.93;91.99
6198;BME280;3132;42.622;23.328;2024-03-02T09:41:50;92307.72;;;10.88;92.81
6198;BME280;3132;42.622;23.328;2024-03-02T09:44:16;92309.59;;;10.69;92.64
6198;BME280;3132;42.622;23.328;2024-03-02T09:46:41;92310.06;;;10.58;93.78
6198;BME280;3132;42.622;23.328;2024-03-02T09:49:12;92301.97;;;10.73;93.68
6198;BME280;3132;42.622;23.328;2024-03-02T09:51:37;92285.34;;;10.69;93.78
6198;BME280;3132;42.622;23.328;2024-03-02T09:54:03;92314.47;;;10.76;92.74
6198;BME280;3132;42.622;23.328;2024-03-02T09:56:29;92299.00;;;10.47;93.61
6198;BME280;3132;42.622;23.328;2024-03-02T09:58:54;92308.75;;;10.42;94.44
6198;BME280;3132;42.622;23.328;2024-03-02T10:01:19;92313.84;;;10.33;92.54
6198;BME280;3132;42.622;23.328;2024-03-02T10:03:45;92308.97;;;10.27;93.65
6198;BME280;3132;42.622;23.328;2024-03-02T10:06:19;92305.75;;;10.16;94.47
6198;BME280;3132;42.622;23.328;2024-03-02T10:08:44;92307.19;;;10.04;96.98
6198;BME280;3132;42.622;23.328;2024-03-02T10:11:10;92305.09;;;10.24;96.26
6198;BME280;3132;42.622;23.328;2024-03-02T10:13:36;92306.78;;;10.15;96.21
6198;BME280;3132;42.622;23.328;2024-03-02T10:16:11;92315.75;;;10.09;96.98
6198;BME280;3132;42.622;23.328;2024-03-02T10:18:37;92305.53;;;10.13;97.88
6198;BME280;3132;42.622;23.328;2024-03-02T10:21:15;92305.97;;;9.96;98.76
6198;BME280;3132;42.622;23.328;2024-03-02T10:23:40;92300.84;;;9.91;98.70
6198;BME280;3132;42.622;23.328;2024-03-02T10:26:18;92297.09;;;9.60;100.00
6198;BME280;3132;42.622;23.328;2024-03-02T10:28:46;92299.16;;;9.82;100.00
6198;BME280;3132;42.622;23.328;2024-03-02T10:31:13;92296.81;;;9.80;99.55
6198;BME280;3132;42.622;23.328;2024-03-02T10:33:38;92298.91;;;9.59;100.00
6198;BME280;3132;42.622;23.328;2024-03-02T10:36:04;92295.47;;;9.17;100.00
6198;BME280;3132;42.622;23.328;2024-03-02T10:38:30;92295.19;;;9.42;100.00
6198;BME280;3132;42.622;23.328;2024-03-02T10:40:57;92296.81;;;9.61;100.00
6198;BME280;3132;42.622;23.328;2024-03-02T10:43:25;92291.81;;;9.84;100.00
6198;BME280;3132;42.622;23.328;2024-03-02T10:45:52;92297.38;;;9.96;100.00
6198;BME280;3132;42.622;23.328;2024-03-02T10:48:17;92291.03;;;9.83;100.00
6198;BME280;3132;42.622;23.328;2024-03-02T10:50:43;92300.06;;;9.72;100.00
6198;BME280;3132;42.622;23.328;2024-03-02T10:53:08;92231.25;;;9.31;100.00
6198;BME280;3132;42.622;23.328;2024-03-02T10:55:34;92288.19;;;9.61;100.00
6198;BME280;3132;42.622;23.328;2024-03-02T10:58:00;92296.72;;;9.66;100.00
6198;BME280;3132;42.622;23.328;2024-03-02T11:00:33;92280.44;;;9.74;100.00
6198;BME280;3132;42.622;23.328;2024-03-02T11:03:05;92285.66;;;9.74;100.00
6198;BME280;3132;42.622;23.328;2024-03-02T11:05:36;92292.28;;;9.67;100.00
6198;BME280;3132;42.622;23.328;2024-03-02T11:08:08;92257.88;;;9.46;100.00
6198;BME280;3132;42.622;23.328;2024-03-02T11:10:36;92288.00;;;9.76;100.00
6198;BME280;3132;42.622;23.328;2024-03-02T11:13:05;92284.06;;;9.78;100.00
6198;BME280;3132;42.622;23.328;2024-03-02T11:15:34;92285.25;;;9.67;100.00
6198;BME280;3132;42.622;23.328;2024-03-02T11:18:04;92284.34;;;9.58;100.00
6198;BME280;3132;42.622;23.328;2024-03-02T11:20:40;92279.56;;;9.42;100.00
6198;BME280;3132;42.622;23.328;2024-03-02T11:23:07;92287.84;;;9.67;100.00
6198;BME280;3132;42.622;23.328;2024-03-02T11:25:33;92275.78;;;9.53;100.00
6198;BME280;3132;42.622;23.328;2024-03-02T11:27:59;92283.28;;;9.59;100.00
6198;BME280;3132;42.622;23.328;2024-03-02T11:32:57;92280.69;;;9.36;100.00
6198;BME280;3132;42.622;23.328;2024-03-02T11:35:25;92250.53;;;9.30;100.00
6198;BME280;3132;42.622;23.328;2024-03-02T11:37:51;92272.88;;;9.36;100.00
6198;BME280;3132;42.622;23.328;2024-03-02T11:40:22;92283.78;;;9.38;100.00
6198;BME280;3132;42.622;23.328;2024-03-02T11:42:47;92274.31;;;9.65;100.00
6198;BME280;3132;42.622;23.328;2024-03-02T11:45:16;92282.00;;;9.57;100.00
6198;BME280;3132;42.622;23.328;2024-03-02T11:47:46;92284.16;;;9.50;100.00
6198;BME280;3132;42.622;23.328;2024-03-02T11:50:15;92240.94;;;9.07;100.00
6198;BME280;3132;42.622;23.328;2024-03-02T11:52:41;92251.16;;;9.22;100.00
6198;BME280;3132;42.622;23.328;2024-03-02T11:55:08;92274.03;;;9.48;100.00
6198;BME280;3132;42.622;23.328;2024-03-02T11:57:35;92287.22;;;9.57;100.00
6198;BME280;3132;42.622;23.328;2024-03-02T12:00:00;92280.44;;;9.56;100.00
6198;BME280;3132;42.622;23.328;2024-03-02T12:02:28;92261.84;;;9.44;100.00
6198;BME280;3132;42.622;23.328;2024-03-02T12:04:54;92278.56;;;9.61;100.00
6198;BME280;3132;42.622;23.328;2024-03-02T12:07:21;92275.13;;;9.42;100.00
6198;BME280;3132;42.622;23.328;2024-03-02T12:10:00;92212.84;;;9.04;100.00
6198;BME280;3132;42.622;23.328;2024-03-02T12:12:28;92282.91;;;9.47;100.00
6198;BME280;3132;42.622;23.328;2024-03-02T12:14:53;92245.97;;;9.40;100.00
6198;BME280;3132;42.622;23.328;2024-03-02T12:17:21;92277.44;;;9.67;100.00
6198;BME280;3132;42.622;23.328;2024-03-02T12:19:46;92286.09;;;9.63;100.00
6198;BME280;3132;42.622;23.328;2024-03-02T12:22:12;92276.78;;;9.57;100.00
6198;BME280;3132;42.622;23.328;2024-03-02T12:24:38;92243.25;;;9.50;100.00
6198;BME280;3132;42.622;23.328;2024-03-02T12:27:04;92254.09;;;9.57;100.00
6198;BME280;3132;42.622;23.328;2024-03-02T12:29:30;92262.94;;;9.61;100.00
6198;BME280;3132;42.622;23.328;2024-03-02T12:31:56;92260.94;;;9.53;100.00
6198;BME280;3132;42.622;23.328;2024-03-02T12:34:22;92275.44;;;9.59;100.00
6198;BME280;3132;42.622;23.328;2024-03-02T12:36:48;92280.72;;;9.54;100.00
6198;BME280;3132;42.622;23.328;2024-03-02T12:39:18;92279.19;;;9.53;100.00
6198;BME280;3132;42.622;23.328;2024-03-02T12:41:45;92272.81;;;9.41;100.00
6198;BME280;3132;42.622;23.328;2024-03-02T12:44:10;92259.31;;;9.57;100.00
6198;BME280;3132;42.622;23.328;2024-03-02T12:46:36;92275.78;;;9.53;100.00
6198;BME280;3132;42.622;23.328;2024-03-02T12:49:08;92288.44;;;9.83;100.00
6198;BME280;3132;42.622;23.328;2024-03-02T12:51:35;92259.19;;;9.86;100.00
6198;BME280;3132;42.622;23.328;2024-03-02T12:54:01;92289.09;;;10.12;100.00
6198;BME280;3132;42.622;23.328;2024-03-02T12:56:27;92287.81;;;10.28;100.00
6198;BME280;3132;42.622;23.328;2024-03-02T12:58:55;92286.69;;;10.34;100.00
6198;BME280;3132;42.622;23.328;2024-03-02T13:01:21;92261.22;;;10.26;100.00
6198;BME280;3132;42.622;23.328;2024-03-02T13:03:49;92250.22;;;10.29;100.00
6198;BME280;3132;42.622;23.328;2024-03-02T13:06:16;92292.69;;;10.67;100.00
6198;BME280;3132;42.622;23.328;2024-03-02T13:08:42;92287.97;;;10.82;100.00
6198;BME280;3132;42.622;23.328;2024-03-02T13:11:08;92295.97;;;11.04;98.64